sensor_id;sensor_type;location;lat;lon;timestamp;P1;durP1;ratioP1;P2;durP2;ratioP2
57571;SDS011;44459;43.522;24.470;2022-12-10T00:01:43;0.30;;;0.30;;
57571;SDS011;44459;43.522;24.470;2022-12-10T00:04:09;0.00;;;0.00;;
57571;SDS011;44459;43.522;24.470;2022-12-10T00:06:36;0.10;;;0.10;;
57571;SDS011;44459;43.522;24.470;2022-12-10T00:09:03;0.10;;;0.10;;
57571;SDS011;44459;43.522;24.470;2022-12-10T00:11:30;1.65;;;0.80;;
57571;SDS011;44459;43.522;24.470;2022-12-10T00:13:56;0.00;;;0.00;;
57571;SDS011;44459;43.522;24.470;2022-12-10T00:16:23;0.22;;;0.22;;
57571;SDS011;44459;43.522;24.470;2022-12-10T00:18:50;0.20;;;0.20;;
57571;SDS011;44459;43.522;24.470;2022-12-10T00:21:17;0.50;;;0.50;;
57571;SDS011;44459;43.522;24.470;2022-12-10T00:23:45;0.63;;;0.63;;
57571;SDS011;44459;43.522;24.470;2022-12-10T00:26:12;0.00;;;0.00;;
57571;SDS011;44459;43.522;24.470;2022-12-10T00:28:42;0.05;;;0.05;;
57571;SDS011;44459;43.522;24.470;2022-12-10T00:31:13;0.00;;;0.00;;
57571;SDS011;44459;43.522;24.470;2022-12-10T00:33:41;0.10;;;0.10;;
57571;SDS011;44459;43.522;24.470;2022-12-10T00:36:09;0.10;;;0.10;;
57571;SDS011;44459;43.522;24.470;2022-12-10T00:38:38;0.00;;;0.00;;
57571;SDS011;44459;43.522;24.470;2022-12-10T00:41:05;0.10;;;0.10;;
57571;SDS011;44459;43.522;24.470;2022-12-10T00:43:31;0.40;;;0.40;;
57571;SDS011;44459;43.522;24.470;2022-12-10T00:45:56;0.10;;;0.10;;
57571;SDS011;44459;43.522;24.470;2022-12-10T00:48:22;0.08;;;0.08;;
57571;SDS011;44459;43.522;24.470;2022-12-10T00:50:58;2.15;;;2.08;;
57571;SDS011;44459;43.522;24.470;2022-12-10T00:53:44;0.20;;;0.20;;
57571;SDS011;44459;43.522;24.470;2022-12-10T00:56:12;0.10;;;0.10;;
57571;SDS011;44459;43.522;24.470;2022-12-10T00:58:38;0.00;;;0.00;;
57571;SDS011;44459;43.522;24.470;2022-12-10T01:01:08;0.00;;;0.00;;
57571;SDS011;44459;43.522;24.470;2022-12-10T01:03:57;0.10;;;0.10;;
57571;SDS011;44459;43.522;24.470;2022-12-10T01:06:29;0.00;;;0.00;;
57571;SDS011;44459;43.522;24.470;2022-12-10T01:08:58;0.00;;;0.00;;
57571;SDS011;44459;43.522;24.470;2022-12-10T01:11:28;0.10;;;0.10;;
57571;SDS011;44459;43.522;24.470;2022-12-10T01:13:55;0.10;;;0.10;;
57571;SDS011;44459;43.522;24.470;2022-12-10T01:16:21;0.75;;;0.75;;
57571;SDS011;44459;43.522;24.470;2022-12-10T01:18:47;0.00;;;0.00;;
57571;SDS011;44459;43.522;24.470;2022-12-10T01:21:17;1.08;;;0.68;;
57571;SDS011;44459;43.522;24.470;2022-12-10T01:23:45;0.00;;;0.00;;
57571;SDS011;44459;43.522;24.470;2022-12-10T01:26:14;0.13;;;0.13;;
57571;SDS011;44459;43.522;24.470;2022-12-10T01:31:14;0.10;;;0.10;;
57571;SDS011;44459;43.522;24.470;2022-12-10T01:33:40;0.10;;;0.10;;
57571;SDS011;44459;43.522;24.470;2022-12-10T01:36:07;0.82;;;0.82;;
57571;SDS011;44459;43.522;24.470;2022-12-10T01:38:37;0.10;;;0.10;;
57571;SDS011;44459;43.522;24.470;2022-12-10T01:41:03;0.10;;;0.10;;
57571;SDS011;44459;43.522;24.470;2022-12-10T01:43:29;0.00;;;0.00;;
57571;SDS011;44459;43.522;24.470;2022-12-10T01:51:30;0.10;;;0.10;;
57571;SDS011;44459;43.522;24.470;2022-12-10T01:53:58;0.30;;;0.30;;
57571;SDS011;44459;43.522;24.470;2022-12-10T01:56:25;0.10;;;0.10;;
57571;SDS011;44459;43.522;24.470;2022-12-10T01:58:51;0.00;;;0.00;;
57571;SDS011;44459;43.522;24.470;2022-12-10T02:01:54;0.00;;;0.00;;
57571;SDS011;44459;43.522;24.470;2022-12-10T02:06:58;5.18;;;4.88;;
57571;SDS011;44459;43.522;24.470;2022-12-10T02:17:14;0.00;;;0.00;;
57571;SDS011;44459;43.522;24.470;2022-12-10T02:19:54;0.10;;;0.10;;
57571;SDS011;44459;43.522;24.470;2022-12-10T02:22:26;0.10;;;0.10;;
57571;SDS011;44459;43.522;24.470;2022-12-10T02:24:56;0.10;;;0.10;;
57571;SDS011;44459;43.522;24.470;2022-12-10T02:30:10;0.00;;;0.00;;
57571;SDS011;44459;43.522;24.470;2022-12-10T02:32:37;0.00;;;0.00;;
57571;SDS011;44459;43.522;24.470;2022-12-10T02:35:09;0.00;;;0.00;;
57571;SDS011;44459;43.522;24.470;2022-12-10T02:37:40;0.10;;;0.10;;
57571;SDS011;44459;43.522;24.470;2022-12-10T02:40:15;0.00;;;0.00;;
57571;SDS011;44459;43.522;24.470;2022-12-10T02:42:44;0.00;;;0.00;;
57571;SDS011;44459;43.522;24.470;2022-12-10T02:45:13;0.00;;;0.00;;
57571;SDS011;44459;43.522;24.470;2022-12-10T02:47:39;0.10;;;0.10;;
57571;SDS011;44459;43.522;24.470;2022-12-10T02:50:05;0.00;;;0.00;;
57571;SDS011;44459;43.522;24.470;2022-12-10T02:52:32;0.68;;;0.68;;
57571;SDS011;44459;43.522;24.470;2022-12-10T02:54:58;0.00;;;0.00;;
57571;SDS011;44459;43.522;24.470;2022-12-10T03:05:12;0.00;;;0.00;;
57571;SDS011;44459;43.522;24.470;2022-12-10T03:07:45;0.20;;;0.20;;
57571;SDS011;44459;43.522;24.470;2022-12-10T03:13:19;1.02;;;1.00;;
57571;SDS011;44459;43.522;24.470;2022-12-10T03:15:51;0.10;;;0.10;;
57571;SDS011;44459;43.522;24.470;2022-12-10T03:18:19;0.00;;;0.00;;
57571;SDS011;44459;43.522;24.470;2022-12-10T03:20:50;0.47;;;0.47;;
57571;SDS011;44459;43.522;24.470;2022-12-10T03:23:18;0.52;;;0.52;;
57571;SDS011;44459;43.522;24.470;2022-12-10T03:25:44;1.08;;;1.08;;
57571;SDS011;44459;43.522;24.470;2022-12-10T03:28:15;0.10;;;0.10;;
57571;SDS011;44459;43.522;24.470;2022-12-10T03:30:45;0.10;;;0.10;;
57571;SDS011;44459;43.522;24.470;2022-12-10T03:33:12;0.20;;;0.20;;
57571;SDS011;44459;43.522;24.470;2022-12-10T03:35:38;0.10;;;0.10;;
57571;SDS011;44459;43.522;24.470;2022-12-10T03:38:05;0.30;;;0.30;;
57571;SDS011;44459;43.522;24.470;2022-12-10T03:40:31;0.00;;;0.00;;
57571;SDS011;44459;43.522;24.470;2022-12-10T03:42:57;0.40;;;0.40;;
57571;SDS011;44459;43.522;24.470;2022-12-10T03:45:22;0.00;;;0.00;;
57571;SDS011;44459;43.522;24.470;2022-12-10T03:47:48;0.00;;;0.00;;
57571;SDS011;44459;43.522;24.470;2022-12-10T03:50:14;0.05;;;0.05;;
57571;SDS011;44459;43.522;24.470;2022-12-10T03:52:39;2.17;;;1.65;;
57571;SDS011;44459;43.522;24.470;2022-12-10T03:55:05;0.25;;;0.25;;
57571;SDS011;44459;43.522;24.470;2022-12-10T03:57:32;0.00;;;0.00;;
57571;SDS011;44459;43.522;24.470;2022-12-10T03:59:57;0.00;;;0.00;;
57571;SDS011;44459;43.522;24.470;2022-12-10T04:02:23;0.10;;;0.10;;
57571;SDS011;44459;43.522;24.470;2022-12-10T04:04:48;0.10;;;0.10;;
57571;SDS011;44459;43.522;24.470;2022-12-10T04:07:14;0.00;;;0.00;;
57571;SDS011;44459;43.522;24.470;2022-12-10T04:09:39;0.20;;;0.20;;
57571;SDS011;44459;43.522;24.470;2022-12-10T04:12:04;0.00;;;0.00;;
57571;SDS011;44459;43.522;24.470;2022-12-10T04:14:30;0.10;;;0.10;;
57571;SDS011;44459;43.522;24.470;2022-12-10T04:17:14;1.35;;;0.88;;
57571;SDS011;44459;43.522;24.470;2022-12-10T04:19:39;0.47;;;0.47;;
57571;SDS011;44459;43.522;24.470;2022-12-10T04:22:05;0.75;;;0.75;;
57571;SDS011;44459;43.522;24.470;2022-12-10T04:24:49;0.10;;;0.10;;
57571;SDS011;44459;43.522;24.470;2022-12-10T04:27:36;4.00;;;3.80;;
57571;SDS011;44459;43.522;24.470;2022-12-10T04:30:09;2.58;;;2.28;;
57571;SDS011;44459;43.522;24.470;2022-12-10T04:32:36;2.30;;;1.35;;
57571;SDS011;44459;43.522;24.470;2022-12-10T04:35:01;0.85;;;0.82;;
57571;SDS011;44459;43.522;24.470;2022-12-10T04:37:27;3.88;;;1.17;;
57571;SDS011;44459;43.522;24.470;2022-12-10T04:39:53;0.68;;;0.68;;
57571;SDS011;44459;43.522;24.470;2022-12-10T04:42:19;1.88;;;1.05;;
57571;SDS011;44459;43.522;24.470;2022-12-10T04:44:46;0.35;;;0.35;;
57571;SDS011;44459;43.522;24.470;2022-12-10T04:47:11;0.82;;;0.82;;
57571;SDS011;44459;43.522;24.470;2022-12-10T04:49:37;0.00;;;0.00;;
57571;SDS011;44459;43.522;24.470;2022-12-10T04:52:03;0.00;;;0.00;;
57571;SDS011;44459;43.522;24.470;2022-12-10T04:54:30;0.98;;;0.98;;
57571;SDS011;44459;43.522;24.470;2022-12-10T04:56:56;0.40;;;0.40;;
57571;SDS011;44459;43.522;24.470;2022-12-10T04:59:21;0.20;;;0.20;;
57571;SDS011;44459;43.522;24.470;2022-12-10T05:01:46;2.90;;;1.75;;
57571;SDS011;44459;43.522;24.470;2022-12-10T05:04:13;0.45;;;0.45;;
57571;SDS011;44459;43.522;24.470;2022-12-10T05:06:40;0.20;;;0.20;;
57571;SDS011;44459;43.522;24.470;2022-12-10T05:09:06;0.10;;;0.10;;
57571;SDS011;44459;43.522;24.470;2022-12-10T05:11:32;3.38;;;1.85;;
57571;SDS011;44459;43.522;24.470;2022-12-10T05:13:58;3.13;;;3.03;;
57571;SDS011;44459;43.522;24.470;2022-12-10T05:16:26;0.30;;;0.30;;
57571;SDS011;44459;43.522;24.470;2022-12-10T05:18:53;0.00;;;0.00;;
57571;SDS011;44459;43.522;24.470;2022-12-10T05:21:20;0.10;;;0.10;;
57571;SDS011;44459;43.522;24.470;2022-12-10T05:23:48;0.47;;;0.45;;
57571;SDS011;44459;43.522;24.470;2022-12-10T05:26:19;1.10;;;1.10;;
57571;SDS011;44459;43.522;24.470;2022-12-10T05:28:50;0.10;;;0.10;;
57571;SDS011;44459;43.522;24.470;2022-12-10T05:31:18;0.38;;;0.38;;
57571;SDS011;44459;43.522;24.470;2022-12-10T05:33:49;0.77;;;0.77;;
57571;SDS011;44459;43.522;24.470;2022-12-10T05:36:17;1.67;;;1.20;;
57571;SDS011;44459;43.522;24.470;2022-12-10T05:38:45;0.65;;;0.65;;
57571;SDS011;44459;43.522;24.470;2022-12-10T05:41:11;1.98;;;1.63;;
57571;SDS011;44459;43.522;24.470;2022-12-10T05:43:38;4.57;;;2.70;;
57571;SDS011;44459;43.522;24.470;2022-12-10T05:46:06;0.22;;;0.22;;
57571;SDS011;44459;43.522;24.470;2022-12-10T05:48:34;0.10;;;0.10;;
57571;SDS011;44459;43.522;24.470;2022-12-10T05:51:03;13.23;;;8.75;;
57571;SDS011;44459;43.522;24.470;2022-12-10T05:53:33;0.85;;;0.85;;
57571;SDS011;44459;43.522;24.470;2022-12-10T05:56:00;2.38;;;2.15;;
57571;SDS011;44459;43.522;24.470;2022-12-10T05:58:30;9.60;;;3.20;;
57571;SDS011;44459;43.522;24.470;2022-12-10T06:00:56;1.35;;;1.27;;
57571;SDS011;44459;43.522;24.470;2022-12-10T06:03:22;3.60;;;1.80;;
57571;SDS011;44459;43.522;24.470;2022-12-10T06:05:48;0.05;;;0.05;;
57571;SDS011;44459;43.522;24.470;2022-12-10T06:08:13;0.28;;;0.28;;
57571;SDS011;44459;43.522;24.470;2022-12-10T06:10:39;0.52;;;0.52;;
57571;SDS011;44459;43.522;24.470;2022-12-10T06:13:04;0.17;;;0.17;;
57571;SDS011;44459;43.522;24.470;2022-12-10T06:15:30;0.35;;;0.35;;
57571;SDS011;44459;43.522;24.470;2022-12-10T06:17:58;0.10;;;0.10;;
57571;SDS011;44459;43.522;24.470;2022-12-10T06:20:24;1.27;;;1.27;;
57571;SDS011;44459;43.522;24.470;2022-12-10T06:22:50;3.53;;;3.13;;
57571;SDS011;44459;43.522;24.470;2022-12-10T06:25:16;3.28;;;1.90;;
57571;SDS011;44459;43.522;24.470;2022-12-10T06:27:42;0.10;;;0.10;;
57571;SDS011;44459;43.522;24.470;2022-12-10T06:30:08;0.10;;;0.10;;
57571;SDS011;44459;43.522;24.470;2022-12-10T06:32:34;3.20;;;1.65;;
57571;SDS011;44459;43.522;24.470;2022-12-10T06:35:00;0.63;;;0.50;;
57571;SDS011;44459;43.522;24.470;2022-12-10T06:37:25;2.25;;;2.03;;
57571;SDS011;44459;43.522;24.470;2022-12-10T06:39:51;0.80;;;0.80;;
57571;SDS011;44459;43.522;24.470;2022-12-10T06:42:17;0.13;;;0.13;;
57571;SDS011;44459;43.522;24.470;2022-12-10T06:44:43;0.10;;;0.10;;
57571;SDS011;44459;43.522;24.470;2022-12-10T06:47:08;0.38;;;0.38;;
57571;SDS011;44459;43.522;24.470;2022-12-10T06:49:34;1.67;;;1.58;;
57571;SDS011;44459;43.522;24.470;2022-12-10T06:51:59;0.10;;;0.10;;
57571;SDS011;44459;43.522;24.470;2022-12-10T06:54:25;0.10;;;0.10;;
57571;SDS011;44459;43.522;24.470;2022-12-10T06:56:50;0.13;;;0.13;;
57571;SDS011;44459;43.522;24.470;2022-12-10T06:59:15;0.10;;;0.10;;
57571;SDS011;44459;43.522;24.470;2022-12-10T07:01:41;0.10;;;0.10;;
57571;SDS011;44459;43.522;24.470;2022-12-10T07:04:07;0.00;;;0.00;;
57571;SDS011;44459;43.522;24.470;2022-12-10T07:06:33;0.10;;;0.10;;
57571;SDS011;44459;43.522;24.470;2022-12-10T07:08:59;0.10;;;0.10;;
57571;SDS011;44459;43.522;24.470;2022-12-10T07:11:24;0.10;;;0.10;;
57571;SDS011;44459;43.522;24.470;2022-12-10T07:13:50;0.10;;;0.10;;
57571;SDS011;44459;43.522;24.470;2022-12-10T07:18:42;0.10;;;0.10;;
57571;SDS011;44459;43.522;24.470;2022-12-10T07:23:48;0.00;;;0.00;;
57571;SDS011;44459;43.522;24.470;2022-12-10T07:26:13;0.10;;;0.10;;
57571;SDS011;44459;43.522;24.470;2022-12-10T07:28:39;0.00;;;0.00;;
57571;SDS011;44459;43.522;24.470;2022-12-10T07:31:05;0.00;;;0.00;;
57571;SDS011;44459;43.522;24.470;2022-12-10T07:33:33;0.35;;;0.35;;
57571;SDS011;44459;43.522;24.470;2022-12-10T07:35:59;0.10;;;0.10;;
57571;SDS011;44459;43.522;24.470;2022-12-10T07:38:24;0.70;;;0.65;;
57571;SDS011;44459;43.522;24.470;2022-12-10T07:40:50;0.05;;;0.05;;
57571;SDS011;44459;43.522;24.470;2022-12-10T07:43:16;0.10;;;0.10;;
57571;SDS011;44459;43.522;24.470;2022-12-10T07:45:42;0.10;;;0.10;;
57571;SDS011;44459;43.522;24.470;2022-12-10T07:48:07;2.20;;;2.10;;
57571;SDS011;44459;43.522;24.470;2022-12-10T07:50:33;0.90;;;0.90;;
57571;SDS011;44459;43.522;24.470;2022-12-10T07:52:59;0.00;;;0.00;;
57571;SDS011;44459;43.522;24.470;2022-12-10T07:55:24;0.73;;;0.73;;
57571;SDS011;44459;43.522;24.470;2022-12-10T07:57:49;2.90;;;2.75;;
57571;SDS011;44459;43.522;24.470;2022-12-10T08:00:15;5.63;;;2.80;;
57571;SDS011;44459;43.522;24.470;2022-12-10T08:02:41;5.15;;;1.13;;
57571;SDS011;44459;43.522;24.470;2022-12-10T08:05:06;1.67;;;1.58;;
57571;SDS011;44459;43.522;24.470;2022-12-10T08:07:32;1.25;;;1.25;;
57571;SDS011;44459;43.522;24.470;2022-12-10T08:09:58;3.45;;;3.25;;
57571;SDS011;44459;43.522;24.470;2022-12-10T08:12:23;0.90;;;0.90;;
57571;SDS011;44459;43.522;24.470;2022-12-10T08:14:49;0.00;;;0.00;;
57571;SDS011;44459;43.522;24.470;2022-12-10T08:17:14;2.33;;;2.20;;
57571;SDS011;44459;43.522;24.470;2022-12-10T08:19:39;0.15;;;0.15;;
57571;SDS011;44459;43.522;24.470;2022-12-10T08:22:05;0.82;;;0.82;;
57571;SDS011;44459;43.522;24.470;2022-12-10T08:24:30;1.58;;;1.58;;
57571;SDS011;44459;43.522;24.470;2022-12-10T08:26:56;0.52;;;0.52;;
57571;SDS011;44459;43.522;24.470;2022-12-10T08:29:21;0.10;;;0.10;;
57571;SDS011;44459;43.522;24.470;2022-12-10T08:31:47;1.00;;;0.63;;
57571;SDS011;44459;43.522;24.470;2022-12-10T08:34:13;0.00;;;0.00;;
57571;SDS011;44459;43.522;24.470;2022-12-10T08:36:39;0.55;;;0.55;;
57571;SDS011;44459;43.522;24.470;2022-12-10T08:39:05;0.00;;;0.00;;
57571;SDS011;44459;43.522;24.470;2022-12-10T08:41:31;1.13;;;1.05;;
57571;SDS011;44459;43.522;24.470;2022-12-10T08:43:56;0.00;;;0.00;;
57571;SDS011;44459;43.522;24.470;2022-12-10T08:46:22;0.52;;;0.52;;
57571;SDS011;44459;43.522;24.470;2022-12-10T08:48:48;2.88;;;2.47;;
57571;SDS011;44459;43.522;24.470;2022-12-10T08:51:15;1.08;;;0.63;;
57571;SDS011;44459;43.522;24.470;2022-12-10T08:53:42;0.15;;;0.15;;
57571;SDS011;44459;43.522;24.470;2022-12-10T08:56:08;1.30;;;1.30;;
57571;SDS011;44459;43.522;24.470;2022-12-10T08:58:33;0.77;;;0.77;;
57571;SDS011;44459;43.522;24.470;2022-12-10T09:00:59;0.77;;;0.60;;
57571;SDS011;44459;43.522;24.470;2022-12-10T09:03:30;1.13;;;1.02;;
57571;SDS011;44459;43.522;24.470;2022-12-10T09:05:55;7.90;;;1.35;;
57571;SDS011;44459;43.522;24.470;2022-12-10T09:08:20;1.38;;;1.25;;
57571;SDS011;44459;43.522;24.470;2022-12-10T09:10:46;2.95;;;0.80;;
57571;SDS011;44459;43.522;24.470;2022-12-10T09:13:11;0.50;;;0.50;;
57571;SDS011;44459;43.522;24.470;2022-12-10T09:15:37;1.95;;;1.33;;
57571;SDS011;44459;43.522;24.470;2022-12-10T09:18:02;1.63;;;1.52;;
57571;SDS011;44459;43.522;24.470;2022-12-10T09:20:28;1.45;;;0.35;;
57571;SDS011;44459;43.522;24.470;2022-12-10T09:22:53;0.75;;;0.73;;
57571;SDS011;44459;43.522;24.470;2022-12-10T09:25:19;1.58;;;1.58;;
57571;SDS011;44459;43.522;24.470;2022-12-10T09:27:46;0.10;;;0.10;;
57571;SDS011;44459;43.522;24.470;2022-12-10T09:30:12;0.00;;;0.00;;
57571;SDS011;44459;43.522;24.470;2022-12-10T09:32:37;3.75;;;2.88;;
57571;SDS011;44459;43.522;24.470;2022-12-10T09:35:03;0.00;;;0.00;;
57571;SDS011;44459;43.522;24.470;2022-12-10T09:37:29;2.50;;;1.65;;
57571;SDS011;44459;43.522;24.470;2022-12-10T09:39:54;1.50;;;1.40;;
57571;SDS011;44459;43.522;24.470;2022-12-10T09:42:26;1.10;;;1.00;;
57571;SDS011;44459;43.522;24.470;2022-12-10T09:50:31;2.75;;;1.30;;
57571;SDS011;44459;43.522;24.470;2022-12-10T09:53:07;1.45;;;1.38;;
57571;SDS011;44459;43.522;24.470;2022-12-10T09:55:40;0.93;;;0.93;;
57571;SDS011;44459;43.522;24.470;2022-12-10T09:58:12;2.72;;;1.65;;
57571;SDS011;44459;43.522;24.470;2022-12-10T10:00:44;1.38;;;1.05;;
57571;SDS011;44459;43.522;24.470;2022-12-10T10:03:15;0.73;;;0.73;;
57571;SDS011;44459;43.522;24.470;2022-12-10T10:08:33;0.30;;;0.30;;
57571;SDS011;44459;43.522;24.470;2022-12-10T10:11:11;4.10;;;2.30;;
57571;SDS011;44459;43.522;24.470;2022-12-10T10:13:42;0.52;;;0.52;;
57571;SDS011;44459;43.522;24.470;2022-12-10T10:18:51;1.30;;;1.13;;
57571;SDS011;44459;43.522;24.470;2022-12-10T10:21:25;4.45;;;3.38;;
57571;SDS011;44459;43.522;24.470;2022-12-10T10:23:55;0.93;;;0.93;;
57571;SDS011;44459;43.522;24.470;2022-12-10T10:26:25;1.17;;;1.17;;
57571;SDS011;44459;43.522;24.470;2022-12-10T10:29:01;3.00;;;2.00;;
57571;SDS011;44459;43.522;24.470;2022-12-10T10:31:30;0.93;;;0.88;;
57571;SDS011;44459;43.522;24.470;2022-12-10T10:34:03;0.00;;;0.00;;
57571;SDS011;44459;43.522;24.470;2022-12-10T10:36:31;3.17;;;2.42;;
57571;SDS011;44459;43.522;24.470;2022-12-10T10:39:25;0.40;;;0.40;;
57571;SDS011;44459;43.522;24.470;2022-12-10T10:41:53;3.53;;;2.58;;
57571;SDS011;44459;43.522;24.470;2022-12-10T10:44:28;0.68;;;0.65;;
57571;SDS011;44459;43.522;24.470;2022-12-10T10:47:00;1.70;;;1.52;;
57571;SDS011;44459;43.522;24.470;2022-12-10T10:49:29;1.40;;;1.30;;
57571;SDS011;44459;43.522;24.470;2022-12-10T10:52:20;1.10;;;0.65;;
57571;SDS011;44459;43.522;24.470;2022-12-10T10:54:45;3.00;;;2.67;;
57571;SDS011;44459;43.522;24.470;2022-12-10T10:57:14;2.65;;;2.05;;
57571;SDS011;44459;43.522;24.470;2022-12-10T10:59:42;0.10;;;0.10;;
57571;SDS011;44459;43.522;24.470;2022-12-10T11:04:54;0.95;;;0.80;;
57571;SDS011;44459;43.522;24.470;2022-12-10T11:10:00;3.20;;;1.73;;
57571;SDS011;44459;43.522;24.470;2022-12-10T11:12:33;0.55;;;0.55;;
57571;SDS011;44459;43.522;24.470;2022-12-10T11:15:01;4.15;;;2.92;;
57571;SDS011;44459;43.522;24.470;2022-12-10T11:17:27;5.50;;;3.03;;
57571;SDS011;44459;43.522;24.470;2022-12-10T11:19:57;6.80;;;2.85;;
57571;SDS011;44459;43.522;24.470;2022-12-10T11:23:16;0.47;;;0.47;;
57571;SDS011;44459;43.522;24.470;2022-12-10T11:33:55;2.65;;;2.33;;
57571;SDS011;44459;43.522;24.470;2022-12-10T11:36:36;5.38;;;3.55;;
57571;SDS011;44459;43.522;24.470;2022-12-10T11:39:14;1.42;;;0.38;;
57571;SDS011;44459;43.522;24.470;2022-12-10T11:41:59;0.03;;;0.03;;
57571;SDS011;44459;43.522;24.470;2022-12-10T11:44:43;0.38;;;0.38;;
57571;SDS011;44459;43.522;24.470;2022-12-10T11:52:39;5.00;;;3.10;;
57571;SDS011;44459;43.522;24.470;2022-12-10T11:55:24;2.65;;;0.90;;
57571;SDS011;44459;43.522;24.470;2022-12-10T11:58:03;1.65;;;1.05;;
57571;SDS011;44459;43.522;24.470;2022-12-10T12:03:31;3.55;;;2.38;;
57571;SDS011;44459;43.522;24.470;2022-12-10T12:16:35;0.00;;;0.00;;
57571;SDS011;44459;43.522;24.470;2022-12-10T12:19:19;0.98;;;0.57;;
57571;SDS011;44459;43.522;24.470;2022-12-10T12:22:10;0.00;;;0.00;;
57571;SDS011;44459;43.522;24.470;2022-12-10T12:24:48;1.27;;;1.17;;
57571;SDS011;44459;43.522;24.470;2022-12-10T12:27:31;3.20;;;1.25;;
57571;SDS011;44459;43.522;24.470;2022-12-10T12:32:31;0.00;;;0.00;;
57571;SDS011;44459;43.522;24.470;2022-12-10T12:37:46;1.95;;;1.55;;
57571;SDS011;44459;43.522;24.470;2022-12-10T12:42:59;1.90;;;1.75;;
57571;SDS011;44459;43.522;24.470;2022-12-10T12:45:33;2.95;;;1.20;;
57571;SDS011;44459;43.522;24.470;2022-12-10T12:53:48;4.43;;;2.65;;
57571;SDS011;44459;43.522;24.470;2022-12-10T13:02:12;4.70;;;2.50;;
57571;SDS011;44459;43.522;24.470;2022-12-10T13:04:58;5.85;;;4.00;;
57571;SDS011;44459;43.522;24.470;2022-12-10T13:10:07;1.48;;;1.38;;
57571;SDS011;44459;43.522;24.470;2022-12-10T13:12:49;3.53;;;2.05;;
57571;SDS011;44459;43.522;24.470;2022-12-10T13:20:34;1.25;;;1.23;;
57571;SDS011;44459;43.522;24.470;2022-12-10T13:23:26;3.47;;;2.97;;
57571;SDS011;44459;43.522;24.470;2022-12-10T13:33:44;8.68;;;4.30;;
57571;SDS011;44459;43.522;24.470;2022-12-10T13:44:59;2.78;;;2.53;;
57571;SDS011;44459;43.522;24.470;2022-12-10T13:50:03;4.47;;;1.35;;
57571;SDS011;44459;43.522;24.470;2022-12-10T13:55:32;8.77;;;3.95;;
57571;SDS011;44459;43.522;24.470;2022-12-10T14:06:21;7.47;;;2.80;;
57571;SDS011;44459;43.522;24.470;2022-12-10T14:09:00;6.72;;;3.63;;
57571;SDS011;44459;43.522;24.470;2022-12-10T14:11:49;2.50;;;1.60;;
57571;SDS011;44459;43.522;24.470;2022-12-10T14:14:39;1.45;;;1.35;;
57571;SDS011;44459;43.522;24.470;2022-12-10T14:17:20;2.15;;;2.05;;
57571;SDS011;44459;43.522;24.470;2022-12-10T14:19:49;0.40;;;0.40;;
57571;SDS011;44459;43.522;24.470;2022-12-10T14:22:19;5.85;;;5.38;;
57571;SDS011;44459;43.522;24.470;2022-12-10T14:24:58;2.92;;;2.35;;
57571;SDS011;44459;43.522;24.470;2022-12-10T14:27:26;6.43;;;5.13;;
57571;SDS011;44459;43.522;24.470;2022-12-10T14:29:57;3.20;;;2.80;;
57571;SDS011;44459;43.522;24.470;2022-12-10T14:32:34;5.25;;;1.73;;
57571;SDS011;44459;43.522;24.470;2022-12-10T14:35:02;3.03;;;1.83;;
57571;SDS011;44459;43.522;24.470;2022-12-10T14:37:31;1.63;;;1.50;;
57571;SDS011;44459;43.522;24.470;2022-12-10T14:40:00;5.88;;;2.97;;
57571;SDS011;44459;43.522;24.470;2022-12-10T14:42:26;3.38;;;3.08;;
57571;SDS011;44459;43.522;24.470;2022-12-10T14:44:59;4.18;;;2.65;;
57571;SDS011;44459;43.522;24.470;2022-12-10T14:47:31;0.00;;;0.00;;
57571;SDS011;44459;43.522;24.470;2022-12-10T14:50:01;5.50;;;3.95;;
57571;SDS011;44459;43.522;24.470;2022-12-10T14:52:33;2.08;;;1.98;;
57571;SDS011;44459;43.522;24.470;2022-12-10T14:55:05;5.47;;;3.47;;
57571;SDS011;44459;43.522;24.470;2022-12-10T14:57:32;3.78;;;3.53;;
57571;SDS011;44459;43.522;24.470;2022-12-10T15:02:37;6.05;;;5.32;;
57571;SDS011;44459;43.522;24.470;2022-12-10T15:05:17;3.67;;;3.38;;
57571;SDS011;44459;43.522;24.470;2022-12-10T15:07:48;8.15;;;3.90;;
57571;SDS011;44459;43.522;24.470;2022-12-10T15:10:40;3.05;;;2.67;;
57571;SDS011;44459;43.522;24.470;2022-12-10T15:13:08;7.38;;;4.43;;
57571;SDS011;44459;43.522;24.470;2022-12-10T15:15:58;5.70;;;4.78;;
57571;SDS011;44459;43.522;24.470;2022-12-10T15:18:31;2.47;;;2.15;;
57571;SDS011;44459;43.522;24.470;2022-12-10T15:23:40;14.63;;;8.55;;
57571;SDS011;44459;43.522;24.470;2022-12-10T15:28:42;4.57;;;3.63;;
57571;SDS011;44459;43.522;24.470;2022-12-10T15:33:37;3.92;;;3.20;;
57571;SDS011;44459;43.522;24.470;2022-12-10T15:36:11;3.13;;;2.80;;
57571;SDS011;44459;43.522;24.470;2022-12-10T15:38:45;3.35;;;2.67;;
57571;SDS011;44459;43.522;24.470;2022-12-10T15:41:32;5.97;;;4.80;;
57571;SDS011;44459;43.522;24.470;2022-12-10T15:49:44;3.40;;;2.33;;
57571;SDS011;44459;43.522;24.470;2022-12-10T15:52:18;3.10;;;1.77;;
57571;SDS011;44459;43.522;24.470;2022-12-10T15:54:46;0.70;;;0.70;;
57571;SDS011;44459;43.522;24.470;2022-12-10T15:57:20;5.55;;;4.03;;
57571;SDS011;44459;43.522;24.470;2022-12-10T15:59:46;4.82;;;4.53;;
57571;SDS011;44459;43.522;24.470;2022-12-10T16:05:11;1.73;;;1.63;;
57571;SDS011;44459;43.522;24.470;2022-12-10T16:07:40;0.47;;;0.43;;
57571;SDS011;44459;43.522;24.470;2022-12-10T16:10:06;0.95;;;0.95;;
57571;SDS011;44459;43.522;24.470;2022-12-10T16:12:34;14.98;;;9.98;;
57571;SDS011;44459;43.522;24.470;2022-12-10T16:15:01;8.20;;;3.75;;
57571;SDS011;44459;43.522;24.470;2022-12-10T16:17:28;4.68;;;3.33;;
57571;SDS011;44459;43.522;24.470;2022-12-10T16:19:57;9.23;;;2.55;;
57571;SDS011;44459;43.522;24.470;2022-12-10T16:22:24;9.15;;;6.55;;
57571;SDS011;44459;43.522;24.470;2022-12-10T16:24:49;8.55;;;5.35;;
57571;SDS011;44459;43.522;24.470;2022-12-10T16:27:15;7.15;;;4.20;;
57571;SDS011;44459;43.522;24.470;2022-12-10T16:29:41;7.78;;;5.20;;
57571;SDS011;44459;43.522;24.470;2022-12-10T16:32:09;6.25;;;5.78;;
57571;SDS011;44459;43.522;24.470;2022-12-10T16:34:36;7.43;;;4.32;;
57571;SDS011;44459;43.522;24.470;2022-12-10T16:37:02;12.70;;;6.90;;
57571;SDS011;44459;43.522;24.470;2022-12-10T16:39:27;7.60;;;4.25;;
57571;SDS011;44459;43.522;24.470;2022-12-10T16:41:54;17.23;;;9.10;;
57571;SDS011;44459;43.522;24.470;2022-12-10T16:44:20;8.20;;;4.55;;
57571;SDS011;44459;43.522;24.470;2022-12-10T16:46:45;22.40;;;9.23;;
57571;SDS011;44459;43.522;24.470;2022-12-10T16:49:10;25.20;;;13.88;;
57571;SDS011;44459;43.522;24.470;2022-12-10T16:51:36;22.38;;;11.50;;
57571;SDS011;44459;43.522;24.470;2022-12-10T16:54:02;12.15;;;5.80;;
57571;SDS011;44459;43.522;24.470;2022-12-10T16:56:28;9.85;;;5.55;;
57571;SDS011;44459;43.522;24.470;2022-12-10T16:58:55;10.80;;;9.77;;
57571;SDS011;44459;43.522;24.470;2022-12-10T17:01:24;22.65;;;4.80;;
57571;SDS011;44459;43.522;24.470;2022-12-10T17:03:53;5.95;;;4.75;;
57571;SDS011;44459;43.522;24.470;2022-12-10T17:06:19;7.95;;;6.60;;
57571;SDS011;44459;43.522;24.470;2022-12-10T17:08:45;2.85;;;1.67;;
57571;SDS011;44459;43.522;24.470;2022-12-10T17:11:21;3.58;;;3.33;;
57571;SDS011;44459;43.522;24.470;2022-12-10T17:14:05;0.30;;;0.30;;
57571;SDS011;44459;43.522;24.470;2022-12-10T17:16:34;3.00;;;2.75;;
57571;SDS011;44459;43.522;24.470;2022-12-10T17:18:59;0.20;;;0.20;;
57571;SDS011;44459;43.522;24.470;2022-12-10T17:21:25;2.08;;;1.98;;
57571;SDS011;44459;43.522;24.470;2022-12-10T17:23:50;0.08;;;0.08;;